sensor_id;sensor_type;location;lat;lon;timestamp;temperature;humidity
36710;DHT22;22694;51.040;3.684;2023-04-06T00:00:50;14.20;74.40
36710;DHT22;22694;51.040;3.684;2023-04-06T00:03:16;14.20;74.50
36710;DHT22;22694;51.040;3.684;2023-04-06T00:05:42;14.20;74.90
36710;DHT22;22694;51.040;3.684;2023-04-06T00:08:07;14.10;74.90
36710;DHT22;22694;51.040;3.684;2023-04-06T00:10:33;14.10;75.00
36710;DHT22;22694;51.040;3.684;2023-04-06T00:12:59;14.10;74.90
36710;DHT22;22694;51.040;3.684;2023-04-06T00:15:25;14.10;74.90
36710;DHT22;22694;51.040;3.684;2023-04-06T00:17:51;14.10;74.70
36710;DHT22;22694;51.040;3.684;2023-04-06T00:20:17;14.10;74.70
36710;DHT22;22694;51.040;3.684;2023-04-06T00:22:43;14.00;74.70
36710;DHT22;22694;51.040;3.684;2023-04-06T00:25:09;14.00;74.70
36710;DHT22;22694;51.040;3.684;2023-04-06T00:27:35;14.00;74.70
36710;DHT22;22694;51.040;3.684;2023-04-06T00:30:03;14.00;74.60
36710;DHT22;22694;51.040;3.684;2023-04-06T00:32:28;14.00;74.70
36710;DHT22;22694;51.040;3.684;2023-04-06T00:34:54;14.00;74.70
36710;DHT22;22694;51.040;3.684;2023-04-06T00:37:20;13.90;74.60
36710;DHT22;22694;51.040;3.684;2023-04-06T00:39:46;13.90;74.60
36710;DHT22;22694;51.040;3.684;2023-04-06T00:42:12;13.90;74.70
36710;DHT22;22694;51.040;3.684;2023-04-06T00:44:41;13.90;74.70
36710;DHT22;22694;51.040;3.684;2023-04-06T00:47:07;13.90;74.70
36710;DHT22;22694;51.040;3.684;2023-04-06T00:49:33;13.90;74.70
36710;DHT22;22694;51.040;3.684;2023-04-06T00:52:00;13.90;74.70
36710;DHT22;22694;51.040;3.684;2023-04-06T00:54:27;13.90;74.80
36710;DHT22;22694;51.040;3.684;2023-04-06T00:56:52;13.90;74.80
36710;DHT22;22694;51.040;3.684;2023-04-06T00:59:18;13.80;74.80
36710;DHT22;22694;51.040;3.684;2023-04-06T01:01:44;13.80;74.80
36710;DHT22;22694;51.040;3.684;2023-04-06T01:04:10;13.80;74.90
36710;DHT22;22694;51.040;3.684;2023-04-06T01:06:35;13.80;74.80
36710;DHT22;22694;51.040;3.684;2023-04-06T01:09:01;13.80;74.80
36710;DHT22;22694;51.040;3.684;2023-04-06T01:11:27;13.80;75.00
36710;DHT22;22694;51.040;3.684;2023-04-06T01:13:53;13.70;75.00
36710;DHT22;22694;51.040;3.684;2023-04-06T01:16:18;13.70;75.00
36710;DHT22;22694;51.040;3.684;2023-04-06T01:18:44;13.70;75.00
36710;DHT22;22694;51.040;3.684;2023-04-06T01:21:10;13.70;75.00
36710;DHT22;22694;51.040;3.684;2023-04-06T01:23:43;13.70;75.00
36710;DHT22;22694;51.040;3.684;2023-04-06T01:26:09;13.70;75.10
36710;DHT22;22694;51.040;3.684;2023-04-06T01:28:35;13.70;75.10
36710;DHT22;22694;51.040;3.684;2023-04-06T01:31:03;13.60;75.00
36710;DHT22;22694;51.040;3.684;2023-04-06T01:33:28;13.70;75.20
36710;DHT22;22694;51.040;3.684;2023-04-06T01:35:54;13.60;75.10
36710;DHT22;22694;51.040;3.684;2023-04-06T01:38:20;13.60;75.20
36710;DHT22;22694;51.040;3.684;2023-04-06T01:40:46;13.60;75.30
36710;DHT22;22694;51.040;3.684;2023-04-06T01:43:12;13.60;75.30
36710;DHT22;22694;51.040;3.684;2023-04-06T01:45:37;13.60;75.30
36710;DHT22;22694;51.040;3.684;2023-04-06T01:48:03;13.60;75.40
36710;DHT22;22694;51.040;3.684;2023-04-06T01:50:29;13.60;75.40
36710;DHT22;22694;51.040;3.684;2023-04-06T01:52:55;13.50;75.50
36710;DHT22;22694;51.040;3.684;2023-04-06T01:55:21;13.50;75.50
36710;DHT22;22694;51.040;3.684;2023-04-06T01:57:46;13.50;75.60
36710;DHT22;22694;51.040;3.684;2023-04-06T02:00:13;13.50;75.60
36710;DHT22;22694;51.040;3.684;2023-04-06T02:02:38;13.50;75.70
36710;DHT22;22694;51.040;3.684;2023-04-06T02:05:04;13.50;75.70
36710;DHT22;22694;51.040;3.684;2023-04-06T02:07:30;13.50;75.80
36710;DHT22;22694;51.040;3.684;2023-04-06T02:09:56;13.50;75.80
36710;DHT22;22694;51.040;3.684;2023-04-06T02:12:22;13.50;75.90
36710;DHT22;22694;51.040;3.684;2023-04-06T02:14:47;13.50;75.90
36710;DHT22;22694;51.040;3.684;2023-04-06T02:17:13;13.50;76.00
36710;DHT22;22694;51.040;3.684;2023-04-06T02:19:39;13.50;76.10
36710;DHT22;22694;51.040;3.684;2023-04-06T02:22:04;13.50;76.10
36710;DHT22;22694;51.040;3.684;2023-04-06T02:24:30;13.40;76.10
36710;DHT22;22694;51.040;3.684;2023-04-06T02:26:56;13.40;76.00
36710;DHT22;22694;51.040;3.684;2023-04-06T02:29:21;13.40;76.10
36710;DHT22;22694;51.040;3.684;2023-04-06T02:31:47;13.40;76.20
36710;DHT22;22694;51.040;3.684;2023-04-06T02:34:12;13.40;76.20
36710;DHT22;22694;51.040;3.684;2023-04-06T02:36:44;13.40;76.20
36710;DHT22;22694;51.040;3.684;2023-04-06T02:39:10;13.40;76.20
36710;DHT22;22694;51.040;3.684;2023-04-06T02:41:36;13.40;76.30
36710;DHT22;22694;51.040;3.684;2023-04-06T02:44:02;13.30;76.40
36710;DHT22;22694;51.040;3.684;2023-04-06T02:46:28;13.30;76.40
36710;DHT22;22694;51.040;3.684;2023-04-06T02:48:54;13.30;76.40
36710;DHT22;22694;51.040;3.684;2023-04-06T02:51:20;13.30;76.30
36710;DHT22;22694;51.040;3.684;2023-04-06T02:53:46;13.30;76.40
36710;DHT22;22694;51.040;3.684;2023-04-06T02:56:11;13.30;76.50
36710;DHT22;22694;51.040;3.684;2023-04-06T02:58:37;13.30;76.50
36710;DHT22;22694;51.040;3.684;2023-04-06T03:01:03;13.30;76.50
36710;DHT22;22694;51.040;3.684;2023-04-06T03:03:29;13.30;76.40
36710;DHT22;22694;51.040;3.684;2023-04-06T03:05:55;13.30;76.50
36710;DHT22;22694;51.040;3.684;2023-04-06T03:08:24;13.30;76.60
36710;DHT22;22694;51.040;3.684;2023-04-06T03:10:50;13.30;76.50
36710;DHT22;22694;51.040;3.684;2023-04-06T03:13:16;13.30;76.50
36710;DHT22;22694;51.040;3.684;2023-04-06T03:15:41;13.30;76.60
36710;DHT22;22694;51.040;3.684;2023-04-06T03:18:07;13.20;76.60
36710;DHT22;22694;51.040;3.684;2023-04-06T03:20:33;13.20;76.60
36710;DHT22;22694;51.040;3.684;2023-04-06T03:22:58;13.20;76.70
36710;DHT22;22694;51.040;3.684;2023-04-06T03:25:24;13.20;76.60
36710;DHT22;22694;51.040;3.684;2023-04-06T03:27:50;13.20;76.70
36710;DHT22;22694;51.040;3.684;2023-04-06T03:30:16;13.20;76.70
36710;DHT22;22694;51.040;3.684;2023-04-06T03:32:43;13.20;76.80
36710;DHT22;22694;51.040;3.684;2023-04-06T03:35:09;13.20;76.80
36710;DHT22;22694;51.040;3.684;2023-04-06T03:37:35;13.20;76.80
36710;DHT22;22694;51.040;3.684;2023-04-06T03:40:01;13.10;76.80
36710;DHT22;22694;51.040;3.684;2023-04-06T03:42:27;13.10;76.80
36710;DHT22;22694;51.040;3.684;2023-04-06T03:44:53;13.10;76.80
36710;DHT22;22694;51.040;3.684;2023-04-06T03:47:18;13.10;76.90
36710;DHT22;22694;51.040;3.684;2023-04-06T03:49:44;13.10;76.90
36710;DHT22;22694;51.040;3.684;2023-04-06T03:52:09;13.20;77.00
36710;DHT22;22694;51.040;3.684;2023-04-06T03:54:35;13.10;77.00
36710;DHT22;22694;51.040;3.684;2023-04-06T03:57:01;13.10;77.00
36710;DHT22;22694;51.040;3.684;2023-04-06T03:59:27;13.10;77.00
36710;DHT22;22694;51.040;3.684;2023-04-06T04:01:53;13.10;77.10
36710;DHT22;22694;51.040;3.684;2023-04-06T04:04:18;13.10;77.10
36710;DHT22;22694;51.040;3.684;2023-04-06T04:06:44;13.10;77.10
36710;DHT22;22694;51.040;3.684;2023-04-06T04:09:10;13.10;77.10
36710;DHT22;22694;51.040;3.684;2023-04-06T04:11:36;13.10;77.10
36710;DHT22;22694;51.040;3.684;2023-04-06T04:14:02;13.00;77.10
36710;DHT22;22694;51.040;3.684;2023-04-06T04:16:27;13.10;77.20
36710;DHT22;22694;51.040;3.684;2023-04-06T04:18:53;13.00;77.20
36710;DHT22;22694;51.040;3.684;2023-04-06T04:21:18;13.00;77.20
36710;DHT22;22694;51.040;3.684;2023-04-06T04:23:44;13.00;77.20
36710;DHT22;22694;51.040;3.684;2023-04-06T04:26:10;13.10;77.30
36710;DHT22;22694;51.040;3.684;2023-04-06T04:28:36;13.00;77.30
36710;DHT22;22694;51.040;3.684;2023-04-06T04:31:01;13.00;77.40
36710;DHT22;22694;51.040;3.684;2023-04-06T04:33:27;13.10;77.50
36710;DHT22;22694;51.040;3.684;2023-04-06T04:35:53;13.00;77.50
36710;DHT22;22694;51.040;3.684;2023-04-06T04:38:18;13.00;77.50
36710;DHT22;22694;51.040;3.684;2023-04-06T04:40:44;13.00;77.50
36710;DHT22;22694;51.040;3.684;2023-04-06T04:43:10;13.00;77.50
36710;DHT22;22694;51.040;3.684;2023-04-06T04:45:36;13.00;78.00
36710;DHT22;22694;51.040;3.684;2023-04-06T04:48:04;13.10;80.00
36710;DHT22;22694;51.040;3.684;2023-04-06T04:50:30;13.20;79.70
36710;DHT22;22694;51.040;3.684;2023-04-06T04:52:56;13.30;78.90
36710;DHT22;22694;51.040;3.684;2023-04-06T04:55:21;13.30;78.50
36710;DHT22;22694;51.040;3.684;2023-04-06T04:57:47;13.30;78.50
36710;DHT22;22694;51.040;3.684;2023-04-06T05:00:13;13.30;78.30
36710;DHT22;22694;51.040;3.684;2023-04-06T05:02:39;13.30;78.20
36710;DHT22;22694;51.040;3.684;2023-04-06T05:05:05;13.30;78.00
36710;DHT22;22694;51.040;3.684;2023-04-06T05:07:31;13.30;78.00
36710;DHT22;22694;51.040;3.684;2023-04-06T05:09:56;13.30;78.10
36710;DHT22;22694;51.040;3.684;2023-04-06T05:12:22;13.30;78.10
36710;DHT22;22694;51.040;3.684;2023-04-06T05:14:48;13.30;78.10
36710;DHT22;22694;51.040;3.684;2023-04-06T05:17:13;13.30;78.00
36710;DHT22;22694;51.040;3.684;2023-04-06T05:19:39;13.30;78.00
36710;DHT22;22694;51.040;3.684;2023-04-06T05:22:05;13.30;78.20
36710;DHT22;22694;51.040;3.684;2023-04-06T05:24:30;13.30;78.20
36710;DHT22;22694;51.040;3.684;2023-04-06T05:26:56;13.30;78.20
36710;DHT22;22694;51.040;3.684;2023-04-06T05:29:22;13.30;78.30
36710;DHT22;22694;51.040;3.684;2023-04-06T05:31:48;13.30;78.20
36710;DHT22;22694;51.040;3.684;2023-04-06T05:34:13;13.30;78.20
36710;DHT22;22694;51.040;3.684;2023-04-06T05:36:39;13.30;78.40
36710;DHT22;22694;51.040;3.684;2023-04-06T05:39:06;13.30;78.30
36710;DHT22;22694;51.040;3.684;2023-04-06T05:41:32;13.20;78.20
36710;DHT22;22694;51.040;3.684;2023-04-06T05:43:58;13.20;78.20
36710;DHT22;22694;51.040;3.684;2023-04-06T05:46:24;13.30;78.40
36710;DHT22;22694;51.040;3.684;2023-04-06T05:48:49;13.20;78.40
36710;DHT22;22694;51.040;3.684;2023-04-06T05:51:18;13.20;78.40
36710;DHT22;22694;51.040;3.684;2023-04-06T05:53:43;13.20;78.60
36710;DHT22;22694;51.040;3.684;2023-04-06T05:56:09;13.20;78.70
36710;DHT22;22694;51.040;3.684;2023-04-06T05:58:34;13.20;78.70
36710;DHT22;22694;51.040;3.684;2023-04-06T06:01:01;13.20;78.70
36710;DHT22;22694;51.040;3.684;2023-04-06T06:03:28;13.20;78.80
36710;DHT22;22694;51.040;3.684;2023-04-06T06:05:54;13.20;78.80
36710;DHT22;22694;51.040;3.684;2023-04-06T06:08:24;13.20;78.80
36710;DHT22;22694;51.040;3.684;2023-04-06T06:10:50;13.30;78.90
36710;DHT22;22694;51.040;3.684;2023-04-06T06:13:16;13.30;79.20
36710;DHT22;22694;51.040;3.684;2023-04-06T06:15:41;13.30;79.30
36710;DHT22;22694;51.040;3.684;2023-04-06T06:18:07;13.30;79.20
36710;DHT22;22694;51.040;3.684;2023-04-06T06:20:33;13.30;79.20
36710;DHT22;22694;51.040;3.684;2023-04-06T06:22:58;13.30;79.20
36710;DHT22;22694;51.040;3.684;2023-04-06T06:25:24;13.30;79.20
36710;DHT22;22694;51.040;3.684;2023-04-06T06:27:50;13.30;79.20
36710;DHT22;22694;51.040;3.684;2023-04-06T06:30:16;13.30;79.30
36710;DHT22;22694;51.040;3.684;2023-04-06T06:32:41;13.30;79.20
36710;DHT22;22694;51.040;3.684;2023-04-06T06:35:07;13.30;79.30
36710;DHT22;22694;51.040;3.684;2023-04-06T06:37:33;13.20;79.20
36710;DHT22;22694;51.040;3.684;2023-04-06T06:39:59;13.30;79.30
36710;DHT22;22694;51.040;3.684;2023-04-06T06:42:24;13.20;79.30
36710;DHT22;22694;51.040;3.684;2023-04-06T06:44:51;13.20;79.30
36710;DHT22;22694;51.040;3.684;2023-04-06T06:47:16;13.20;79.40
36710;DHT22;22694;51.040;3.684;2023-04-06T06:49:42;13.20;79.40
36710;DHT22;22694;51.040;3.684;2023-04-06T06:52:08;13.20;79.50
36710;DHT22;22694;51.040;3.684;2023-04-06T06:54:33;13.20;79.50
36710;DHT22;22694;51.040;3.684;2023-04-06T06:56:59;13.30;79.50
36710;DHT22;22694;51.040;3.684;2023-04-06T06:59:25;13.20;79.50
36710;DHT22;22694;51.040;3.684;2023-04-06T07:01:51;13.20;79.50
36710;DHT22;22694;51.040;3.684;2023-04-06T07:04:17;13.30;80.20
36710;DHT22;22694;51.040;3.684;2023-04-06T07:06:43;13.30;79.70
36710;DHT22;22694;51.040;3.684;2023-04-06T07:09:09;13.20;79.70
36710;DHT22;22694;51.040;3.684;2023-04-06T07:11:34;13.30;79.80
36710;DHT22;22694;51.040;3.684;2023-04-06T07:14:00;13.30;79.80
36710;DHT22;22694;51.040;3.684;2023-04-06T07:16:26;13.30;79.80
36710;DHT22;22694;51.040;3.684;2023-04-06T07:18:51;13.30;80.00
36710;DHT22;22694;51.040;3.684;2023-04-06T07:21:17;13.30;80.00
36710;DHT22;22694;51.040;3.684;2023-04-06T07:23:43;13.30;80.00
36710;DHT22;22694;51.040;3.684;2023-04-06T07:26:09;13.30;79.90
36710;DHT22;22694;51.040;3.684;2023-04-06T07:28:34;13.30;79.90
36710;DHT22;22694;51.040;3.684;2023-04-06T07:31:00;13.30;79.90
36710;DHT22;22694;51.040;3.684;2023-04-06T07:33:25;13.30;80.00
36710;DHT22;22694;51.040;3.684;2023-04-06T07:35:55;13.30;79.90
36710;DHT22;22694;51.040;3.684;2023-04-06T07:38:21;13.30;80.00
36710;DHT22;22694;51.040;3.684;2023-04-06T07:40:46;13.30;80.00
36710;DHT22;22694;51.040;3.684;2023-04-06T07:43:12;13.30;80.00
36710;DHT22;22694;51.040;3.684;2023-04-06T07:45:38;13.30;80.00
36710;DHT22;22694;51.040;3.684;2023-04-06T07:48:03;13.30;80.00
36710;DHT22;22694;51.040;3.684;2023-04-06T07:50:29;13.30;80.10
36710;DHT22;22694;51.040;3.684;2023-04-06T07:52:55;13.30;80.30
36710;DHT22;22694;51.040;3.684;2023-04-06T07:55:20;13.30;80.10
36710;DHT22;22694;51.040;3.684;2023-04-06T07:57:46;13.30;80.20
36710;DHT22;22694;51.040;3.684;2023-04-06T08:00:12;13.30;80.30
36710;DHT22;22694;51.040;3.684;2023-04-06T08:02:39;13.30;80.40
36710;DHT22;22694;51.040;3.684;2023-04-06T08:05:05;13.30;80.40
36710;DHT22;22694;51.040;3.684;2023-04-06T08:07:31;13.30;80.20
36710;DHT22;22694;51.040;3.684;2023-04-06T08:09:56;13.30;80.30
36710;DHT22;22694;51.040;3.684;2023-04-06T08:12:22;13.30;80.40
36710;DHT22;22694;51.040;3.684;2023-04-06T08:14:48;13.40;80.40
36710;DHT22;22694;51.040;3.684;2023-04-06T08:17:14;13.30;80.50
36710;DHT22;22694;51.040;3.684;2023-04-06T08:19:42;13.40;81.40
36710;DHT22;22694;51.040;3.684;2023-04-06T08:22:09;13.40;81.00
36710;DHT22;22694;51.040;3.684;2023-04-06T08:24:35;13.40;81.70
36710;DHT22;22694;51.040;3.684;2023-04-06T08:27:01;13.40;81.00
36710;DHT22;22694;51.040;3.684;2023-04-06T08:29:26;13.40;80.80
36710;DHT22;22694;51.040;3.684;2023-04-06T08:31:52;13.40;80.50
36710;DHT22;22694;51.040;3.684;2023-04-06T08:34:18;13.30;80.30
36710;DHT22;22694;51.040;3.684;2023-04-06T08:36:43;13.30;80.20
36710;DHT22;22694;51.040;3.684;2023-04-06T08:39:10;13.30;80.40
36710;DHT22;22694;51.040;3.684;2023-04-06T08:41:36;13.30;80.10
36710;DHT22;22694;51.040;3.684;2023-04-06T08:44:02;13.30;80.00
36710;DHT22;22694;51.040;3.684;2023-04-06T08:46:29;13.30;80.30
36710;DHT22;22694;51.040;3.684;2023-04-06T08:48:57;13.30;80.20
36710;DHT22;22694;51.040;3.684;2023-04-06T08:51:24;13.30;80.10
36710;DHT22;22694;51.040;3.684;2023-04-06T08:53:57;13.20;80.30
36710;DHT22;22694;51.040;3.684;2023-04-06T08:56:24;13.20;80.40
36710;DHT22;22694;51.040;3.684;2023-04-06T08:58:50;13.20;80.40
36710;DHT22;22694;51.040;3.684;2023-04-06T09:01:20;13.30;80.50
36710;DHT22;22694;51.040;3.684;2023-04-06T09:03:48;13.30;81.30
36710;DHT22;22694;51.040;3.684;2023-04-06T09:06:14;13.30;81.00
36710;DHT22;22694;51.040;3.684;2023-04-06T09:08:40;13.50;87.40
36710;DHT22;22694;51.040;3.684;2023-04-06T09:11:07;13.60;86.40
36710;DHT22;22694;51.040;3.684;2023-04-06T09:13:53;13.70;85.10
36710;DHT22;22694;51.040;3.684;2023-04-06T09:16:20;13.70;84.10
36710;DHT22;22694;51.040;3.684;2023-04-06T09:18:46;13.80;83.70
36710;DHT22;22694;51.040;3.684;2023-04-06T09:21:12;13.80;83.50
36710;DHT22;22694;51.040;3.684;2023-04-06T09:23:38;13.80;83.30
36710;DHT22;22694;51.040;3.684;2023-04-06T09:26:12;13.80;84.20
36710;DHT22;22694;51.040;3.684;2023-04-06T09:28:45;14.10;90.60
36710;DHT22;22694;51.040;3.684;2023-04-06T09:31:11;14.30;89.00
36710;DHT22;22694;51.040;3.684;2023-04-06T09:33:39;14.40;87.00
36710;DHT22;22694;51.040;3.684;2023-04-06T09:36:06;14.20;84.90
36710;DHT22;22694;51.040;3.684;2023-04-06T09:38:32;14.10;84.20
36710;DHT22;22694;51.040;3.684;2023-04-06T09:40:57;14.00;83.40
36710;DHT22;22694;51.040;3.684;2023-04-06T09:43:27;13.90;81.80
36710;DHT22;22694;51.040;3.684;2023-04-06T09:45:53;13.90;81.00
36710;DHT22;22694;51.040;3.684;2023-04-06T09:48:20;13.80;80.80
36710;DHT22;22694;51.040;3.684;2023-04-06T09:50:49;13.70;81.00
36710;DHT22;22694;51.040;3.684;2023-04-06T09:53:19;13.70;80.90
36710;DHT22;22694;51.040;3.684;2023-04-06T09:55:46;13.70;80.90
36710;DHT22;22694;51.040;3.684;2023-04-06T09:58:16;13.60;80.90
36710;DHT22;22694;51.040;3.684;2023-04-06T10:00:48;13.60;80.90
36710;DHT22;22694;51.040;3.684;2023-04-06T10:06:13;13.60;81.10
36710;DHT22;22694;51.040;3.684;2023-04-06T10:08:40;13.60;82.90
36710;DHT22;22694;51.040;3.684;2023-04-06T10:11:11;13.80;87.50
36710;DHT22;22694;51.040;3.684;2023-04-06T10:13:37;13.80;84.50
36710;DHT22;22694;51.040;3.684;2023-04-06T10:16:04;13.70;82.70
36710;DHT22;22694;51.040;3.684;2023-04-06T10:18:31;13.70;81.90
36710;DHT22;22694;51.040;3.684;2023-04-06T10:21:01;13.70;81.60
36710;DHT22;22694;51.040;3.684;2023-04-06T10:26:19;13.60;81.50
36710;DHT22;22694;51.040;3.684;2023-04-06T10:28:47;13.60;81.50
36710;DHT22;22694;51.040;3.684;2023-04-06T10:31:13;13.60;81.50
36710;DHT22;22694;51.040;3.684;2023-04-06T10:33:39;13.60;81.60
36710;DHT22;22694;51.040;3.684;2023-04-06T10:36:22;13.60;81.70
36710;DHT22;22694;51.040;3.684;2023-04-06T10:38:57;13.60;81.60
36710;DHT22;22694;51.040;3.684;2023-04-06T10:41:31;13.60;81.60
36710;DHT22;22694;51.040;3.684;2023-04-06T10:43:57;13.50;81.60
36710;DHT22;22694;51.040;3.684;2023-04-06T10:46:27;13.60;81.70
36710;DHT22;22694;51.040;3.684;2023-04-06T10:48:53;13.50;81.50
36710;DHT22;22694;51.040;3.684;2023-04-06T10:51:19;13.60;81.80
36710;DHT22;22694;51.040;3.684;2023-04-06T10:53:49;13.60;81.70
36710;DHT22;22694;51.040;3.684;2023-04-06T10:56:17;13.60;81.60
36710;DHT22;22694;51.040;3.684;2023-04-06T10:58:47;13.50;81.60
36710;DHT22;22694;51.040;3.684;2023-04-06T11:01:17;13.60;81.70
36710;DHT22;22694;51.040;3.684;2023-04-06T11:03:44;13.60;81.70
36710;DHT22;22694;51.040;3.684;2023-04-06T11:06:10;13.50;81.80
36710;DHT22;22694;51.040;3.684;2023-04-06T11:08:36;13.60;81.70
36710;DHT22;22694;51.040;3.684;2023-04-06T11:11:14;13.60;81.80
36710;DHT22;22694;51.040;3.684;2023-04-06T11:13:46;13.60;81.90
36710;DHT22;22694;51.040;3.684;2023-04-06T11:16:17;13.50;81.80
36710;DHT22;22694;51.040;3.684;2023-04-06T11:18:56;13.50;81.90
36710;DHT22;22694;51.040;3.684;2023-04-06T11:21:48;13.60;81.70
36710;DHT22;22694;51.040;3.684;2023-04-06T11:24:17;13.60;81.70
36710;DHT22;22694;51.040;3.684;2023-04-06T11:29:13;13.60;83.00
36710;DHT22;22694;51.040;3.684;2023-04-06T11:31:42;13.90;90.00
36710;DHT22;22694;51.040;3.684;2023-04-06T11:34:28;13.90;88.10
36710;DHT22;22694;51.040;3.684;2023-04-06T11:36:58;13.90;85.20
36710;DHT22;22694;51.040;3.684;2023-04-06T11:39:25;13.90;83.80
36710;DHT22;22694;51.040;3.684;2023-04-06T11:41:59;13.80;82.80
36710;DHT22;22694;51.040;3.684;2023-04-06T11:47:02;13.90;82.40
36710;DHT22;22694;51.040;3.684;2023-04-06T11:49:30;13.80;82.10
36710;DHT22;22694;51.040;3.684;2023-04-06T11:51:57;13.80;82.10
36710;DHT22;22694;51.040;3.684;2023-04-06T11:54:36;13.80;81.90
36710;DHT22;22694;51.040;3.684;2023-04-06T11:57:03;13.80;81.80
36710;DHT22;22694;51.040;3.684;2023-04-06T11:59:29;13.80;81.70
36710;DHT22;22694;51.040;3.684;2023-04-06T12:01:57;13.80;81.90
36710;DHT22;22694;51.040;3.684;2023-04-06T12:04:22;13.80;81.70
36710;DHT22;22694;51.040;3.684;2023-04-06T12:06:48;13.80;81.80
36710;DHT22;22694;51.040;3.684;2023-04-06T12:09:15;13.80;81.80
36710;DHT22;22694;51.040;3.684;2023-04-06T12:11:40;13.80;81.80
36710;DHT22;22694;51.040;3.684;2023-04-06T12:14:06;13.80;81.70
36710;DHT22;22694;51.040;3.684;2023-04-06T12:16:33;13.80;81.80
36710;DHT22;22694;51.040;3.684;2023-04-06T12:18:59;13.80;81.70
36710;DHT22;22694;51.040;3.684;2023-04-06T12:21:27;13.90;81.70
36710;DHT22;22694;51.040;3.684;2023-04-06T12:23:54;13.80;81.60
36710;DHT22;22694;51.040;3.684;2023-04-06T12:26:20;13.90;81.60
36710;DHT22;22694;51.040;3.684;2023-04-06T12:28:46;14.00;92.10
36710;DHT22;22694;51.040;3.684;2023-04-06T12:31:18;14.30;91.70
36710;DHT22;22694;51.040;3.684;2023-04-06T12:33:51;14.60;91.50
36710;DHT22;22694;51.040;3.684;2023-04-06T12:36:20;14.80;91.70
36710;DHT22;22694;51.040;3.684;2023-04-06T12:38:50;15.00;91.60
36710;DHT22;22694;51.040;3.684;2023-04-06T12:41:17;15.30;91.30
36710;DHT22;22694;51.040;3.684;2023-04-06T12:43:43;15.50;91.00
36710;DHT22;22694;51.040;3.684;2023-04-06T12:46:09;15.60;90.80
36710;DHT22;22694;51.040;3.684;2023-04-06T12:48:35;15.70;90.50
36710;DHT22;22694;51.040;3.684;2023-04-06T12:51:03;15.80;90.30
36710;DHT22;22694;51.040;3.684;2023-04-06T12:53:29;15.90;90.20
36710;DHT22;22694;51.040;3.684;2023-04-06T12:55:56;16.00;90.00
36710;DHT22;22694;51.040;3.684;2023-04-06T12:58:22;16.00;89.50
36710;DHT22;22694;51.040;3.684;2023-04-06T13:00:49;16.10;89.90
36710;DHT22;22694;51.040;3.684;2023-04-06T13:03:21;16.10;89.00
36710;DHT22;22694;51.040;3.684;2023-04-06T13:05:48;16.20;88.70
36710;DHT22;22694;51.040;3.684;2023-04-06T13:08:15;16.10;88.10
36710;DHT22;22694;51.040;3.684;2023-04-06T13:10:44;15.90;87.10
36710;DHT22;22694;51.040;3.684;2023-04-06T13:13:10;15.70;86.30
36710;DHT22;22694;51.040;3.684;2023-04-06T13:15:36;15.50;85.10
36710;DHT22;22694;51.040;3.684;2023-04-06T13:18:02;15.30;84.20
36710;DHT22;22694;51.040;3.684;2023-04-06T13:20:28;15.20;84.00
36710;DHT22;22694;51.040;3.684;2023-04-06T13:22:53;15.10;84.00
36710;DHT22;22694;51.040;3.684;2023-04-06T13:25:19;15.00;84.30
36710;DHT22;22694;51.040;3.684;2023-04-06T13:27:45;14.90;84.30
36710;DHT22;22694;51.040;3.684;2023-04-06T13:30:13;14.90;84.50
36710;DHT22;22694;51.040;3.684;2023-04-06T13:32:39;14.90;84.50
36710;DHT22;22694;51.040;3.684;2023-04-06T13:35:05;14.80;84.40
36710;DHT22;22694;51.040;3.684;2023-04-06T13:37:32;14.70;84.50
36710;DHT22;22694;51.040;3.684;2023-04-06T13:39:57;14.80;84.50
36710;DHT22;22694;51.040;3.684;2023-04-06T13:42:23;14.70;84.50
36710;DHT22;22694;51.040;3.684;2023-04-06T13:44:49;14.70;84.50
36710;DHT22;22694;51.040;3.684;2023-04-06T13:47:17;14.60;84.40
36710;DHT22;22694;51.040;3.684;2023-04-06T13:49:43;14.60;84.40
36710;DHT22;22694;51.040;3.684;2023-04-06T13:52:08;14.60;84.30
36710;DHT22;22694;51.040;3.684;2023-04-06T13:54:35;14.60;84.20
36710;DHT22;22694;51.040;3.684;2023-04-06T13:57:02;14.50;84.10
36710;DHT22;22694;51.040;3.684;2023-04-06T13:59:46;14.50;84.00
36710;DHT22;22694;51.040;3.684;2023-04-06T14:02:11;14.50;83.90
36710;DHT22;22694;51.040;3.684;2023-04-06T14:04:37;14.50;83.90
36710;DHT22;22694;51.040;3.684;2023-04-06T14:07:03;14.50;83.80
36710;DHT22;22694;51.040;3.684;2023-04-06T14:09:29;14.50;83.70
36710;DHT22;22694;51.040;3.684;2023-04-06T14:11:56;14.50;83.70
36710;DHT22;22694;51.040;3.684;2023-04-06T14:14:22;14.40;83.60
36710;DHT22;22694;51.040;3.684;2023-04-06T14:16:48;14.50;83.60
36710;DHT22;22694;51.040;3.684;2023-04-06T14:19:15;14.40;83.50
36710;DHT22;22694;51.040;3.684;2023-04-06T14:21:43;14.40;83.50
36710;DHT22;22694;51.040;3.684;2023-04-06T14:24:09;14.40;83.50
36710;DHT22;22694;51.040;3.684;2023-04-06T14:26:36;14.40;83.60
36710;DHT22;22694;51.040;3.684;2023-04-06T14:29:03;14.40;83.50
36710;DHT22;22694;51.040;3.684;2023-04-06T14:31:29;14.40;83.80
36710;DHT22;22694;51.040;3.684;2023-04-06T14:33:55;14.40;83.70
36710;DHT22;22694;51.040;3.684;2023-04-06T14:36:21;14.40;83.60
36710;DHT22;22694;51.040;3.684;2023-04-06T14:38:46;14.40;83.60
36710;DHT22;22694;51.040;3.684;2023-04-06T14:41:16;14.40;84.30
36710;DHT22;22694;51.040;3.684;2023-04-06T14:43:43;14.50;85.80
36710;DHT22;22694;51.040;3.684;2023-04-06T14:46:09;14.70;87.60
36710;DHT22;22694;51.040;3.684;2023-04-06T14:48:35;14.90;90.50
36710;DHT22;22694;51.040;3.684;2023-04-06T14:51:01;15.00;90.10
36710;DHT22;22694;51.040;3.684;2023-04-06T14:53:27;15.10;88.80
36710;DHT22;22694;51.040;3.684;2023-04-06T14:55:53;15.00;87.40
36710;DHT22;22694;51.040;3.684;2023-04-06T14:58:19;15.00;86.60
36710;DHT22;22694;51.040;3.684;2023-04-06T15:00:46;14.90;86.10
36710;DHT22;22694;51.040;3.684;2023-04-06T15:03:12;14.90;85.70
36710;DHT22;22694;51.040;3.684;2023-04-06T15:05:38;14.90;85.70
36710;DHT22;22694;51.040;3.684;2023-04-06T15:08:03;14.90;85.60
36710;DHT22;22694;51.040;3.684;2023-04-06T15:10:33;14.90;85.50
36710;DHT22;22694;51.040;3.684;2023-04-06T15:12:59;14.90;85.50
36710;DHT22;22694;51.040;3.684;2023-04-06T15:15:25;14.90;85.40
36710;DHT22;22694;51.040;3.684;2023-04-06T15:17:51;14.90;85.40
36710;DHT22;22694;51.040;3.684;2023-04-06T15:20:17;14.90;85.50
36710;DHT22;22694;51.040;3.684;2023-04-06T15:22:42;14.90;85.40
36710;DHT22;22694;51.040;3.684;2023-04-06T15:25:08;15.00;85.60
36710;DHT22;22694;51.040;3.684;2023-04-06T15:27:34;14.90;85.30
36710;DHT22;22694;51.040;3.684;2023-04-06T15:29:59;15.00;85.60
36710;DHT22;22694;51.040;3.684;2023-04-06T15:32:25;15.10;90.20
36710;DHT22;22694;51.040;3.684;2023-04-06T15:34:52;15.40;91.30
36710;DHT22;22694;51.040;3.684;2023-04-06T15:37:18;15.60;90.40